sensor_id;sensor_type;location;lat;lon;timestamp;temperature;humidity
23371;DHT22;11858;51.056;3.712;2023-07-16T00:01:52;17.70;99.90
23371;DHT22;11858;51.056;3.712;2023-07-16T00:04:18;17.80;99.90
23371;DHT22;11858;51.056;3.712;2023-07-16T00:06:43;17.60;99.90
23371;DHT22;11858;51.056;3.712;2023-07-16T00:09:09;17.60;99.90
23371;DHT22;11858;51.056;3.712;2023-07-16T00:11:34;17.60;99.90
23371;DHT22;11858;51.056;3.712;2023-07-16T00:14:00;17.60;99.90
23371;DHT22;11858;51.056;3.712;2023-07-16T00:16:27;17.60;99.90
23371;DHT22;11858;51.056;3.712;2023-07-16T00:18:53;17.60;99.90
23371;DHT22;11858;51.056;3.712;2023-07-16T00:21:18;17.50;99.90
23371;DHT22;11858;51.056;3.712;2023-07-16T00:23:44;17.60;99.90
23371;DHT22;11858;51.056;3.712;2023-07-16T00:26:10;17.60;99.90
23371;DHT22;11858;51.056;3.712;2023-07-16T00:28:35;17.60;99.90
23371;DHT22;11858;51.056;3.712;2023-07-16T00:31:01;17.60;99.90
23371;DHT22;11858;51.056;3.712;2023-07-16T00:33:27;17.50;99.90
23371;DHT22;11858;51.056;3.712;2023-07-16T00:35:52;17.60;99.90
23371;DHT22;11858;51.056;3.712;2023-07-16T00:38:18;17.60;99.90
23371;DHT22;11858;51.056;3.712;2023-07-16T00:40:45;17.40;99.90
23371;DHT22;11858;51.056;3.712;2023-07-16T00:43:11;17.40;99.90
23371;DHT22;11858;51.056;3.712;2023-07-16T00:45:37;17.30;99.90
23371;DHT22;11858;51.056;3.712;2023-07-16T00:48:05;17.40;99.90
23371;DHT22;11858;51.056;3.712;2023-07-16T00:50:33;17.40;99.90
23371;DHT22;11858;51.056;3.712;2023-07-16T00:53:00;17.40;99.90
23371;DHT22;11858;51.056;3.712;2023-07-16T00:55:28;17.40;99.90
23371;DHT22;11858;51.056;3.712;2023-07-16T00:57:54;17.40;99.90
23371;DHT22;11858;51.056;3.712;2023-07-16T01:00:23;17.40;99.90
23371;DHT22;11858;51.056;3.712;2023-07-16T01:02:48;17.40;99.90
23371;DHT22;11858;51.056;3.712;2023-07-16T01:05:14;17.30;99.90
23371;DHT22;11858;51.056;3.712;2023-07-16T01:07:47;17.40;99.90
23371;DHT22;11858;51.056;3.712;2023-07-16T01:10:17;17.40;99.90
23371;DHT22;11858;51.056;3.712;2023-07-16T01:12:43;17.40;99.90
23371;DHT22;11858;51.056;3.712;2023-07-16T01:15:09;17.40;99.90
23371;DHT22;11858;51.056;3.712;2023-07-16T01:17:35;17.40;99.90
23371;DHT22;11858;51.056;3.712;2023-07-16T01:20:01;17.40;99.90
23371;DHT22;11858;51.056;3.712;2023-07-16T01:25:56;17.40;99.90
23371;DHT22;11858;51.056;3.712;2023-07-16T01:28:38;17.50;99.90
23371;DHT22;11858;51.056;3.712;2023-07-16T01:31:10;17.50;99.90
23371;DHT22;11858;51.056;3.712;2023-07-16T01:33:38;17.50;99.90
23371;DHT22;11858;51.056;3.712;2023-07-16T01:36:06;17.50;99.90
23371;DHT22;11858;51.056;3.712;2023-07-16T01:38:33;17.60;99.90
23371;DHT22;11858;51.056;3.712;2023-07-16T01:40:59;17.50;99.90
23371;DHT22;11858;51.056;3.712;2023-07-16T01:43:24;17.50;99.90
23371;DHT22;11858;51.056;3.712;2023-07-16T01:45:50;17.60;99.90
23371;DHT22;11858;51.056;3.712;2023-07-16T01:48:24;17.50;99.90
23371;DHT22;11858;51.056;3.712;2023-07-16T01:50:54;17.60;99.90
23371;DHT22;11858;51.056;3.712;2023-07-16T01:53:19;17.60;99.90
23371;DHT22;11858;51.056;3.712;2023-07-16T01:55:45;17.60;99.90
23371;DHT22;11858;51.056;3.712;2023-07-16T01:58:11;17.60;99.90
23371;DHT22;11858;51.056;3.712;2023-07-16T02:00:37;17.60;99.90
23371;DHT22;11858;51.056;3.712;2023-07-16T02:03:02;17.50;99.90
23371;DHT22;11858;51.056;3.712;2023-07-16T02:05:28;17.50;99.90
23371;DHT22;11858;51.056;3.712;2023-07-16T02:07:54;17.60;99.90
23371;DHT22;11858;51.056;3.712;2023-07-16T02:10:19;17.50;99.90
23371;DHT22;11858;51.056;3.712;2023-07-16T02:12:45;17.50;99.90
23371;DHT22;11858;51.056;3.712;2023-07-16T02:15:11;17.40;99.90
23371;DHT22;11858;51.056;3.712;2023-07-16T02:17:36;17.40;99.90
23371;DHT22;11858;51.056;3.712;2023-07-16T02:20:02;17.50;99.90
23371;DHT22;11858;51.056;3.712;2023-07-16T02:22:31;17.40;99.90
23371;DHT22;11858;51.056;3.712;2023-07-16T02:24:56;17.40;99.90
23371;DHT22;11858;51.056;3.712;2023-07-16T02:27:22;17.40;99.90
23371;DHT22;11858;51.056;3.712;2023-07-16T02:29:47;17.40;99.90
23371;DHT22;11858;51.056;3.712;2023-07-16T02:32:13;17.50;99.90
23371;DHT22;11858;51.056;3.712;2023-07-16T02:34:39;17.50;99.90
23371;DHT22;11858;51.056;3.712;2023-07-16T02:37:05;17.40;99.90
23371;DHT22;11858;51.056;3.712;2023-07-16T02:39:31;17.30;99.90
23371;DHT22;11858;51.056;3.712;2023-07-16T02:41:56;17.40;99.90
23371;DHT22;11858;51.056;3.712;2023-07-16T02:44:22;17.30;99.90
23371;DHT22;11858;51.056;3.712;2023-07-16T02:46:47;17.30;99.90
23371;DHT22;11858;51.056;3.712;2023-07-16T02:49:13;17.30;99.90
23371;DHT22;11858;51.056;3.712;2023-07-16T02:51:39;17.30;99.90
23371;DHT22;11858;51.056;3.712;2023-07-16T02:54:04;17.30;99.90
23371;DHT22;11858;51.056;3.712;2023-07-16T02:56:30;17.20;99.90
23371;DHT22;11858;51.056;3.712;2023-07-16T02:58:55;17.20;99.90
23371;DHT22;11858;51.056;3.712;2023-07-16T03:01:21;17.20;99.90
23371;DHT22;11858;51.056;3.712;2023-07-16T03:03:47;17.10;99.90
23371;DHT22;11858;51.056;3.712;2023-07-16T03:06:12;17.00;99.90
23371;DHT22;11858;51.056;3.712;2023-07-16T03:08:38;16.90;99.90
23371;DHT22;11858;51.056;3.712;2023-07-16T03:11:04;17.00;99.90
23371;DHT22;11858;51.056;3.712;2023-07-16T03:13:29;17.10;99.90
23371;DHT22;11858;51.056;3.712;2023-07-16T03:15:55;17.20;99.90
23371;DHT22;11858;51.056;3.712;2023-07-16T03:18:20;17.20;99.90
23371;DHT22;11858;51.056;3.712;2023-07-16T03:20:46;17.20;99.90
23371;DHT22;11858;51.056;3.712;2023-07-16T03:23:12;17.30;99.90
23371;DHT22;11858;51.056;3.712;2023-07-16T03:25:38;17.40;99.90
23371;DHT22;11858;51.056;3.712;2023-07-16T03:28:03;17.40;99.90
23371;DHT22;11858;51.056;3.712;2023-07-16T03:30:30;17.30;99.90
23371;DHT22;11858;51.056;3.712;2023-07-16T03:32:56;17.40;99.90
23371;DHT22;11858;51.056;3.712;2023-07-16T03:35:22;17.30;99.90
23371;DHT22;11858;51.056;3.712;2023-07-16T03:37:47;17.30;99.90
23371;DHT22;11858;51.056;3.712;2023-07-16T03:40:15;17.20;99.90
23371;DHT22;11858;51.056;3.712;2023-07-16T03:42:41;17.20;99.90
23371;DHT22;11858;51.056;3.712;2023-07-16T03:45:08;17.10;99.90
23371;DHT22;11858;51.056;3.712;2023-07-16T03:47:34;17.20;99.90
23371;DHT22;11858;51.056;3.712;2023-07-16T03:50:00;17.20;99.90
23371;DHT22;11858;51.056;3.712;2023-07-16T03:52:25;17.20;99.90
23371;DHT22;11858;51.056;3.712;2023-07-16T03:54:52;17.20;99.90
23371;DHT22;11858;51.056;3.712;2023-07-16T03:57:17;17.20;99.90
23371;DHT22;11858;51.056;3.712;2023-07-16T03:59:43;17.20;99.90
23371;DHT22;11858;51.056;3.712;2023-07-16T04:02:09;17.10;99.90
23371;DHT22;11858;51.056;3.712;2023-07-16T04:04:34;17.10;99.90
23371;DHT22;11858;51.056;3.712;2023-07-16T04:07:00;17.20;99.90
23371;DHT22;11858;51.056;3.712;2023-07-16T04:09:26;17.00;99.90
23371;DHT22;11858;51.056;3.712;2023-07-16T04:11:51;16.90;99.90
23371;DHT22;11858;51.056;3.712;2023-07-16T04:14:17;16.90;99.90
23371;DHT22;11858;51.056;3.712;2023-07-16T04:16:42;17.00;99.90
23371;DHT22;11858;51.056;3.712;2023-07-16T04:19:09;17.00;99.90
23371;DHT22;11858;51.056;3.712;2023-07-16T04:21:35;16.90;99.90
23371;DHT22;11858;51.056;3.712;2023-07-16T04:24:02;16.90;99.90
23371;DHT22;11858;51.056;3.712;2023-07-16T04:26:28;16.80;99.90
23371;DHT22;11858;51.056;3.712;2023-07-16T04:28:53;16.90;99.90
23371;DHT22;11858;51.056;3.712;2023-07-16T04:31:19;16.80;99.90
23371;DHT22;11858;51.056;3.712;2023-07-16T04:33:44;16.90;99.90
23371;DHT22;11858;51.056;3.712;2023-07-16T04:36:10;16.90;99.90
23371;DHT22;11858;51.056;3.712;2023-07-16T04:38:36;17.00;99.90
23371;DHT22;11858;51.056;3.712;2023-07-16T04:41:02;17.00;99.90
23371;DHT22;11858;51.056;3.712;2023-07-16T04:43:28;17.10;99.90
23371;DHT22;11858;51.056;3.712;2023-07-16T04:45:53;17.00;99.90
23371;DHT22;11858;51.056;3.712;2023-07-16T04:48:19;17.00;99.90
23371;DHT22;11858;51.056;3.712;2023-07-16T04:50:44;17.10;99.90
23371;DHT22;11858;51.056;3.712;2023-07-16T04:53:10;17.10;99.90
23371;DHT22;11858;51.056;3.712;2023-07-16T04:55:37;17.00;99.90
23371;DHT22;11858;51.056;3.712;2023-07-16T04:58:03;17.00;99.90
23371;DHT22;11858;51.056;3.712;2023-07-16T05:00:29;17.00;99.90
23371;DHT22;11858;51.056;3.712;2023-07-16T05:02:54;17.10;99.90
23371;DHT22;11858;51.056;3.712;2023-07-16T05:05:20;17.00;99.90
23371;DHT22;11858;51.056;3.712;2023-07-16T05:07:45;17.10;99.90
23371;DHT22;11858;51.056;3.712;2023-07-16T05:10:11;17.10;99.90
23371;DHT22;11858;51.056;3.712;2023-07-16T05:12:37;17.20;99.90
23371;DHT22;11858;51.056;3.712;2023-07-16T05:15:03;17.20;99.90
23371;DHT22;11858;51.056;3.712;2023-07-16T05:17:28;17.20;99.90
23371;DHT22;11858;51.056;3.712;2023-07-16T05:19:54;17.20;99.90
23371;DHT22;11858;51.056;3.712;2023-07-16T05:22:19;17.20;99.90
23371;DHT22;11858;51.056;3.712;2023-07-16T05:24:45;17.20;99.90
23371;DHT22;11858;51.056;3.712;2023-07-16T05:27:11;17.10;99.90
23371;DHT22;11858;51.056;3.712;2023-07-16T05:29:36;17.20;99.90
23371;DHT22;11858;51.056;3.712;2023-07-16T05:32:03;17.20;99.90
23371;DHT22;11858;51.056;3.712;2023-07-16T05:34:29;17.30;99.90
23371;DHT22;11858;51.056;3.712;2023-07-16T05:36:54;17.30;99.90
23371;DHT22;11858;51.056;3.712;2023-07-16T05:39:23;17.20;99.90
23371;DHT22;11858;51.056;3.712;2023-07-16T05:41:49;17.40;99.90
23371;DHT22;11858;51.056;3.712;2023-07-16T05:44:15;17.40;99.90
23371;DHT22;11858;51.056;3.712;2023-07-16T05:46:40;17.50;99.90
23371;DHT22;11858;51.056;3.712;2023-07-16T05:49:06;17.50;99.90
23371;DHT22;11858;51.056;3.712;2023-07-16T05:51:31;17.50;99.90
23371;DHT22;11858;51.056;3.712;2023-07-16T05:53:57;17.50;99.90
23371;DHT22;11858;51.056;3.712;2023-07-16T05:56:23;17.50;99.90
23371;DHT22;11858;51.056;3.712;2023-07-16T05:58:49;17.60;99.90
23371;DHT22;11858;51.056;3.712;2023-07-16T06:01:14;17.60;99.90
23371;DHT22;11858;51.056;3.712;2023-07-16T06:03:40;17.70;99.90
23371;DHT22;11858;51.056;3.712;2023-07-16T06:06:08;17.70;99.90
23371;DHT22;11858;51.056;3.712;2023-07-16T06:08:34;17.80;99.90
23371;DHT22;11858;51.056;3.712;2023-07-16T06:11:00;17.80;99.90
23371;DHT22;11858;51.056;3.712;2023-07-16T06:13:26;17.60;99.90
23371;DHT22;11858;51.056;3.712;2023-07-16T06:15:51;17.70;99.90
23371;DHT22;11858;51.056;3.712;2023-07-16T06:18:17;17.90;99.90
23371;DHT22;11858;51.056;3.712;2023-07-16T06:20:44;17.90;99.90
23371;DHT22;11858;51.056;3.712;2023-07-16T06:23:10;18.00;99.90
23371;DHT22;11858;51.056;3.712;2023-07-16T06:25:36;18.10;99.90
23371;DHT22;11858;51.056;3.712;2023-07-16T06:28:03;18.40;99.90
23371;DHT22;11858;51.056;3.712;2023-07-16T06:30:29;18.40;99.90
23371;DHT22;11858;51.056;3.712;2023-07-16T06:32:56;18.40;99.90
23371;DHT22;11858;51.056;3.712;2023-07-16T06:35:21;18.40;99.90
23371;DHT22;11858;51.056;3.712;2023-07-16T06:37:47;18.40;99.90
23371;DHT22;11858;51.056;3.712;2023-07-16T06:40:13;18.40;99.90
23371;DHT22;11858;51.056;3.712;2023-07-16T06:42:38;18.40;99.90
23371;DHT22;11858;51.056;3.712;2023-07-16T06:45:06;18.30;99.90
23371;DHT22;11858;51.056;3.712;2023-07-16T06:47:32;18.40;99.90
23371;DHT22;11858;51.056;3.712;2023-07-16T06:49:58;18.50;99.90
23371;DHT22;11858;51.056;3.712;2023-07-16T06:52:24;18.70;99.90
23371;DHT22;11858;51.056;3.712;2023-07-16T06:54:55;18.70;99.90
23371;DHT22;11858;51.056;3.712;2023-07-16T06:57:22;18.70;99.90
23371;DHT22;11858;51.056;3.712;2023-07-16T06:59:47;18.80;99.90
23371;DHT22;11858;51.056;3.712;2023-07-16T07:02:13;18.70;99.90
23371;DHT22;11858;51.056;3.712;2023-07-16T07:04:39;18.80;99.90
23371;DHT22;11858;51.056;3.712;2023-07-16T07:07:04;18.90;99.90
23371;DHT22;11858;51.056;3.712;2023-07-16T07:09:30;18.90;99.90
23371;DHT22;11858;51.056;3.712;2023-07-16T07:11:56;18.80;99.90
23371;DHT22;11858;51.056;3.712;2023-07-16T07:14:22;18.90;99.90
23371;DHT22;11858;51.056;3.712;2023-07-16T07:16:47;19.00;99.90
23371;DHT22;11858;51.056;3.712;2023-07-16T07:19:13;18.80;99.90
23371;DHT22;11858;51.056;3.712;2023-07-16T07:21:38;18.70;99.90
23371;DHT22;11858;51.056;3.712;2023-07-16T07:24:04;18.80;99.90
23371;DHT22;11858;51.056;3.712;2023-07-16T07:26:30;18.90;99.90
23371;DHT22;11858;51.056;3.712;2023-07-16T07:28:55;19.00;99.90
23371;DHT22;11858;51.056;3.712;2023-07-16T07:31:21;19.00;99.90
23371;DHT22;11858;51.056;3.712;2023-07-16T07:33:47;19.20;99.90
23371;DHT22;11858;51.056;3.712;2023-07-16T07:36:12;19.20;99.90
23371;DHT22;11858;51.056;3.712;2023-07-16T07:38:38;19.30;99.90
23371;DHT22;11858;51.056;3.712;2023-07-16T07:41:05;19.50;99.90
23371;DHT22;11858;51.056;3.712;2023-07-16T07:43:31;19.70;99.90
23371;DHT22;11858;51.056;3.712;2023-07-16T07:45:57;19.60;99.90
23371;DHT22;11858;51.056;3.712;2023-07-16T07:48:22;19.90;99.90
23371;DHT22;11858;51.056;3.712;2023-07-16T07:50:48;19.90;99.90
23371;DHT22;11858;51.056;3.712;2023-07-16T07:53:14;19.80;99.90
23371;DHT22;11858;51.056;3.712;2023-07-16T07:55:44;19.70;99.90
23371;DHT22;11858;51.056;3.712;2023-07-16T07:58:10;19.70;99.90
23371;DHT22;11858;51.056;3.712;2023-07-16T08:00:36;19.90;99.90
23371;DHT22;11858;51.056;3.712;2023-07-16T08:03:02;20.00;99.90
23371;DHT22;11858;51.056;3.712;2023-07-16T08:05:28;19.90;99.90
23371;DHT22;11858;51.056;3.712;2023-07-16T08:07:53;20.10;99.90
23371;DHT22;11858;51.056;3.712;2023-07-16T08:10:21;20.10;99.90
23371;DHT22;11858;51.056;3.712;2023-07-16T08:12:47;20.00;99.90
23371;DHT22;11858;51.056;3.712;2023-07-16T08:15:13;20.20;99.90
23371;DHT22;11858;51.056;3.712;2023-07-16T08:17:42;20.30;99.90
23371;DHT22;11858;51.056;3.712;2023-07-16T08:20:08;20.20;99.90
23371;DHT22;11858;51.056;3.712;2023-07-16T08:22:34;20.20;99.90
23371;DHT22;11858;51.056;3.712;2023-07-16T08:25:00;20.10;99.90
23371;DHT22;11858;51.056;3.712;2023-07-16T08:27:26;20.00;99.90
23371;DHT22;11858;51.056;3.712;2023-07-16T08:29:51;20.10;99.90
23371;DHT22;11858;51.056;3.712;2023-07-16T08:32:18;20.00;99.90
23371;DHT22;11858;51.056;3.712;2023-07-16T08:34:43;19.90;99.90
23371;DHT22;11858;51.056;3.712;2023-07-16T08:37:09;19.90;99.90
23371;DHT22;11858;51.056;3.712;2023-07-16T08:39:35;20.00;99.90
23371;DHT22;11858;51.056;3.712;2023-07-16T08:42:01;19.90;99.90
23371;DHT22;11858;51.056;3.712;2023-07-16T08:44:29;20.10;99.90
23371;DHT22;11858;51.056;3.712;2023-07-16T08:46:54;20.20;99.90
23371;DHT22;11858;51.056;3.712;2023-07-16T08:49:22;20.00;99.90
23371;DHT22;11858;51.056;3.712;2023-07-16T08:51:48;19.80;99.90
23371;DHT22;11858;51.056;3.712;2023-07-16T08:54:14;19.80;99.90
23371;DHT22;11858;51.056;3.712;2023-07-16T08:56:44;19.80;99.90
23371;DHT22;11858;51.056;3.712;2023-07-16T08:59:10;19.80;99.90
23371;DHT22;11858;51.056;3.712;2023-07-16T09:01:37;19.90;99.90
23371;DHT22;11858;51.056;3.712;2023-07-16T09:04:03;19.90;99.90
23371;DHT22;11858;51.056;3.712;2023-07-16T09:06:29;20.00;99.90
23371;DHT22;11858;51.056;3.712;2023-07-16T09:08:54;19.80;99.90
23371;DHT22;11858;51.056;3.712;2023-07-16T09:11:21;19.70;99.90
23371;DHT22;11858;51.056;3.712;2023-07-16T09:13:51;19.80;99.90
23371;DHT22;11858;51.056;3.712;2023-07-16T09:16:20;19.80;99.90
23371;DHT22;11858;51.056;3.712;2023-07-16T09:18:46;19.80;99.90
23371;DHT22;11858;51.056;3.712;2023-07-16T09:21:12;19.80;99.90
23371;DHT22;11858;51.056;3.712;2023-07-16T09:23:39;19.80;99.90
23371;DHT22;11858;51.056;3.712;2023-07-16T09:26:05;19.20;99.90
23371;DHT22;11858;51.056;3.712;2023-07-16T09:28:32;18.60;99.90
23371;DHT22;11858;51.056;3.712;2023-07-16T09:31:06;18.40;99.90
23371;DHT22;11858;51.056;3.712;2023-07-16T09:33:33;18.20;99.90
23371;DHT22;11858;51.056;3.712;2023-07-16T09:35:59;18.30;99.90
23371;DHT22;11858;51.056;3.712;2023-07-16T09:38:27;18.60;99.90
23371;DHT22;11858;51.056;3.712;2023-07-16T09:40:55;19.30;99.90
23371;DHT22;11858;51.056;3.712;2023-07-16T09:43:21;19.70;99.90
23371;DHT22;11858;51.056;3.712;2023-07-16T09:45:47;19.70;99.90
23371;DHT22;11858;51.056;3.712;2023-07-16T09:48:14;19.60;99.90
23371;DHT22;11858;51.056;3.712;2023-07-16T09:50:52;19.60;99.90
23371;DHT22;11858;51.056;3.712;2023-07-16T09:53:19;19.90;99.90
23371;DHT22;11858;51.056;3.712;2023-07-16T09:55:46;20.40;99.90
23371;DHT22;11858;51.056;3.712;2023-07-16T09:58:13;20.30;99.90
23371;DHT22;11858;51.056;3.712;2023-07-16T10:00:41;20.30;99.90
23371;DHT22;11858;51.056;3.712;2023-07-16T10:03:07;20.60;99.90
23371;DHT22;11858;51.056;3.712;2023-07-16T10:05:36;20.70;99.90
23371;DHT22;11858;51.056;3.712;2023-07-16T10:08:02;20.90;99.90
23371;DHT22;11858;51.056;3.712;2023-07-16T10:10:52;21.30;99.90
23371;DHT22;11858;51.056;3.712;2023-07-16T10:13:22;21.00;99.90
23371;DHT22;11858;51.056;3.712;2023-07-16T10:15:57;20.70;99.90
23371;DHT22;11858;51.056;3.712;2023-07-16T10:18:32;20.50;99.90
23371;DHT22;11858;51.056;3.712;2023-07-16T10:21:06;20.30;99.90
23371;DHT22;11858;51.056;3.712;2023-07-16T10:23:40;20.60;99.90
23371;DHT22;11858;51.056;3.712;2023-07-16T10:26:07;20.90;99.90
23371;DHT22;11858;51.056;3.712;2023-07-16T10:28:37;21.40;99.90
23371;DHT22;11858;51.056;3.712;2023-07-16T10:31:03;22.30;99.90
23371;DHT22;11858;51.056;3.712;2023-07-16T10:33:29;23.10;99.90
23371;DHT22;11858;51.056;3.712;2023-07-16T10:35:57;23.00;99.90
23371;DHT22;11858;51.056;3.712;2023-07-16T10:38:26;23.40;99.90
23371;DHT22;11858;51.056;3.712;2023-07-16T10:40:52;23.70;99.90
23371;DHT22;11858;51.056;3.712;2023-07-16T10:43:18;23.90;99.90
23371;DHT22;11858;51.056;3.712;2023-07-16T10:45:43;24.00;99.90
23371;DHT22;11858;51.056;3.712;2023-07-16T10:48:12;24.30;99.90
23371;DHT22;11858;51.056;3.712;2023-07-16T10:50:38;24.60;99.90
23371;DHT22;11858;51.056;3.712;2023-07-16T10:53:04;24.20;99.90
23371;DHT22;11858;51.056;3.712;2023-07-16T10:55:30;24.00;99.90
23371;DHT22;11858;51.056;3.712;2023-07-16T10:57:58;24.40;99.90
23371;DHT22;11858;51.056;3.712;2023-07-16T11:00:23;24.70;99.90
23371;DHT22;11858;51.056;3.712;2023-07-16T11:02:50;24.00;99.90
23371;DHT22;11858;51.056;3.712;2023-07-16T11:05:17;23.80;99.90
23371;DHT22;11858;51.056;3.712;2023-07-16T11:07:47;23.70;99.90
23371;DHT22;11858;51.056;3.712;2023-07-16T11:10:17;24.00;99.90
23371;DHT22;11858;51.056;3.712;2023-07-16T11:12:43;23.90;99.90
23371;DHT22;11858;51.056;3.712;2023-07-16T11:15:09;24.00;99.90
23371;DHT22;11858;51.056;3.712;2023-07-16T11:17:38;24.20;99.90
23371;DHT22;11858;51.056;3.712;2023-07-16T11:20:07;24.90;99.90
23371;DHT22;11858;51.056;3.712;2023-07-16T11:22:37;25.10;99.90
23371;DHT22;11858;51.056;3.712;2023-07-16T11:25:03;24.50;99.90
23371;DHT22;11858;51.056;3.712;2023-07-16T11:27:31;24.50;99.90
23371;DHT22;11858;51.056;3.712;2023-07-16T11:29:58;24.40;99.90
23371;DHT22;11858;51.056;3.712;2023-07-16T11:32:33;24.50;99.90
23371;DHT22;11858;51.056;3.712;2023-07-16T11:35:00;23.90;99.90
23371;DHT22;11858;51.056;3.712;2023-07-16T11:37:30;23.20;99.90
23371;DHT22;11858;51.056;3.712;2023-07-16T11:39:57;22.70;99.90
23371;DHT22;11858;51.056;3.712;2023-07-16T11:42:34;22.30;99.90
23371;DHT22;11858;51.056;3.712;2023-07-16T11:45:00;22.10;99.90
23371;DHT22;11858;51.056;3.712;2023-07-16T11:47:26;22.10;99.90
23371;DHT22;11858;51.056;3.712;2023-07-16T11:49:53;22.10;99.90
23371;DHT22;11858;51.056;3.712;2023-07-16T11:52:27;23.00;99.90
23371;DHT22;11858;51.056;3.712;2023-07-16T11:54:56;23.80;99.90
23371;DHT22;11858;51.056;3.712;2023-07-16T11:57:21;24.20;99.90
23371;DHT22;11858;51.056;3.712;2023-07-16T11:59:47;24.30;99.90
23371;DHT22;11858;51.056;3.712;2023-07-16T12:02:13;23.90;99.90
23371;DHT22;11858;51.056;3.712;2023-07-16T12:04:39;23.60;99.90
23371;DHT22;11858;51.056;3.712;2023-07-16T12:07:05;23.40;99.90
23371;DHT22;11858;51.056;3.712;2023-07-16T12:09:30;23.40;99.90
23371;DHT22;11858;51.056;3.712;2023-07-16T12:11:56;23.40;99.90
23371;DHT22;11858;51.056;3.712;2023-07-16T12:14:22;23.40;99.90
23371;DHT22;11858;51.056;3.712;2023-07-16T12:16:48;23.30;99.90
23371;DHT22;11858;51.056;3.712;2023-07-16T12:19:13;23.10;99.90
23371;DHT22;11858;51.056;3.712;2023-07-16T12:21:39;23.50;99.90
23371;DHT22;11858;51.056;3.712;2023-07-16T12:24:05;24.90;99.90
23371;DHT22;11858;51.056;3.712;2023-07-16T12:26:31;25.60;99.90
23371;DHT22;11858;51.056;3.712;2023-07-16T12:28:57;26.10;99.90
23371;DHT22;11858;51.056;3.712;2023-07-16T12:31:22;25.80;99.90
23371;DHT22;11858;51.056;3.712;2023-07-16T12:33:48;26.00;99.90
23371;DHT22;11858;51.056;3.712;2023-07-16T12:36:14;25.50;99.90
23371;DHT22;11858;51.056;3.712;2023-07-16T12:38:41;24.70;99.90
23371;DHT22;11858;51.056;3.712;2023-07-16T12:41:07;24.40;99.90
23371;DHT22;11858;51.056;3.712;2023-07-16T12:43:32;24.10;99.90
23371;DHT22;11858;51.056;3.712;2023-07-16T12:46:03;24.00;99.90
23371;DHT22;11858;51.056;3.712;2023-07-16T12:48:30;24.30;99.90
23371;DHT22;11858;51.056;3.712;2023-07-16T12:50:56;24.30;99.90
23371;DHT22;11858;51.056;3.712;2023-07-16T12:53:22;24.10;99.90
23371;DHT22;11858;51.056;3.712;2023-07-16T12:55:47;24.00;99.90
23371;DHT22;11858;51.056;3.712;2023-07-16T12:58:13;24.50;99.90
23371;DHT22;11858;51.056;3.712;2023-07-16T13:00:39;24.20;99.90
23371;DHT22;11858;51.056;3.712;2023-07-16T13:03:05;23.70;99.90
23371;DHT22;11858;51.056;3.712;2023-07-16T13:05:30;23.50;99.90
23371;DHT22;11858;51.056;3.712;2023-07-16T13:07:56;23.50;99.90
23371;DHT22;11858;51.056;3.712;2023-07-16T13:10:23;23.50;99.90
23371;DHT22;11858;51.056;3.712;2023-07-16T13:12:48;23.60;99.90
23371;DHT22;11858;51.056;3.712;2023-07-16T13:15:14;23.40;99.90
23371;DHT22;11858;51.056;3.712;2023-07-16T13:17:40;23.80;99.90
23371;DHT22;11858;51.056;3.712;2023-07-16T13:20:06;24.90;99.90
23371;DHT22;11858;51.056;3.712;2023-07-16T13:22:32;25.60;99.90
23371;DHT22;11858;51.056;3.712;2023-07-16T13:24:58;25.60;99.90
23371;DHT22;11858;51.056;3.712;2023-07-16T13:27:24;25.50;99.90
23371;DHT22;11858;51.056;3.712;2023-07-16T13:29:50;24.90;99.90
23371;DHT22;11858;51.056;3.712;2023-07-16T13:32:16;24.30;99.90
23371;DHT22;11858;51.056;3.712;2023-07-16T13:34:42;24.00;99.90
23371;DHT22;11858;51.056;3.712;2023-07-16T13:37:08;23.70;99.90
23371;DHT22;11858;51.056;3.712;2023-07-16T13:39:33;23.70;99.90
23371;DHT22;11858;51.056;3.712;2023-07-16T13:41:59;23.50;99.90
23371;DHT22;11858;51.056;3.712;2023-07-16T13:44:24;23.50;99.90
23371;DHT22;11858;51.056;3.712;2023-07-16T13:46:50;23.50;99.90
23371;DHT22;11858;51.056;3.712;2023-07-16T13:49:16;23.70;99.90
23371;DHT22;11858;51.056;3.712;2023-07-16T13:51:41;24.40;99.90
23371;DHT22;11858;51.056;3.712;2023-07-16T13:54:07;25.60;99.90
23371;DHT22;11858;51.056;3.712;2023-07-16T13:56:32;25.70;99.90
23371;DHT22;11858;51.056;3.712;2023-07-16T13:58:58;25.70;99.90
23371;DHT22;11858;51.056;3.712;2023-07-16T14:01:24;26.70;99.90
23371;DHT22;11858;51.056;3.712;2023-07-16T14:03:50;27.90;99.90
23371;DHT22;11858;51.056;3.712;2023-07-16T14:06:15;28.00;99.90
23371;DHT22;11858;51.056;3.712;2023-07-16T14:08:41;27.60;99.90
23371;DHT22;11858;51.056;3.712;2023-07-16T14:11:07;27.40;99.90
23371;DHT22;11858;51.056;3.712;2023-07-16T14:13:32;26.40;99.90
23371;DHT22;11858;51.056;3.712;2023-07-16T14:15:58;26.00;99.90
23371;DHT22;11858;51.056;3.712;2023-07-16T14:18:24;25.60;99.90
23371;DHT22;11858;51.056;3.712;2023-07-16T14:20:49;25.00;99.90
23371;DHT22;11858;51.056;3.712;2023-07-16T14:23:15;24.70;99.90
23371;DHT22;11858;51.056;3.712;2023-07-16T14:25:41;24.30;99.90
23371;DHT22;11858;51.056;3.712;2023-07-16T14:28:06;24.30;99.90
23371;DHT22;11858;51.056;3.712;2023-07-16T14:30:32;24.20;99.90
23371;DHT22;11858;51.056;3.712;2023-07-16T14:32:58;23.90;99.90
23371;DHT22;11858;51.056;3.712;2023-07-16T14:35:25;23.40;99.90
23371;DHT22;11858;51.056;3.712;2023-07-16T14:37:50;23.20;99.90
23371;DHT22;11858;51.056;3.712;2023-07-16T14:40:16;23.30;99.90
23371;DHT22;11858;51.056;3.712;2023-07-16T14:42:43;23.30;99.90
23371;DHT22;11858;51.056;3.712;2023-07-16T14:45:09;23.30;99.90
23371;DHT22;11858;51.056;3.712;2023-07-16T14:47:35;23.30;99.90
23371;DHT22;11858;51.056;3.712;2023-07-16T14:50:00;23.30;99.90
23371;DHT22;11858;51.056;3.712;2023-07-16T14:52:26;23.30;99.90
23371;DHT22;11858;51.056;3.712;2023-07-16T14:54:52;23.20;99.90
23371;DHT22;11858;51.056;3.712;2023-07-16T14:57:17;22.80;99.90
23371;DHT22;11858;51.056;3.712;2023-07-16T14:59:43;22.40;99.90
23371;DHT22;11858;51.056;3.712;2023-07-16T15:02:09;22.10;99.90
23371;DHT22;11858;51.056;3.712;2023-07-16T15:04:35;22.20;99.90
23371;DHT22;11858;51.056;3.712;2023-07-16T15:07:00;22.10;99.90
23371;DHT22;11858;51.056;3.712;2023-07-16T15:09:26;22.00;99.90
23371;DHT22;11858;51.056;3.712;2023-07-16T15:11:52;21.40;99.90
23371;DHT22;11858;51.056;3.712;2023-07-16T15:14:18;20.90;99.90
23371;DHT22;11858;51.056;3.712;2023-07-16T15:16:44;20.60;99.90
23371;DHT22;11858;51.056;3.712;2023-07-16T15:19:09;20.70;99.90
23371;DHT22;11858;51.056;3.712;2023-07-16T15:21:35;20.90;99.90
23371;DHT22;11858;51.056;3.712;2023-07-16T15:24:04;21.00;99.90
23371;DHT22;11858;51.056;3.712;2023-07-16T15:26:30;21.20;99.90
23371;DHT22;11858;51.056;3.712;2023-07-16T15:28:57;21.40;99.90